createdAt,value
2022-08-30T00:01:28.581Z,45.80
2022-08-30T00:03:56.629Z,45.70
2022-08-30T00:06:24.985Z,45.80
2022-08-30T00:08:52.698Z,45.80
2022-08-30T00:11:22.100Z,45.80
2022-08-30T00:13:52.474Z,45.70
2022-08-30T00:16:21.637Z,45.70
2022-08-30T00:18:49.698Z,45.60
2022-08-30T00:21:17.612Z,45.60
2022-08-30T00:23:45.705Z,45.70
2022-08-30T00:26:13.420Z,45.60
2022-08-30T00:28:41.129Z,45.60
2022-08-30T00:31:10.533Z,45.60
2022-08-30T00:33:42.658Z,45.70
2022-08-30T00:36:10.395Z,45.70
2022-08-30T00:38:38.105Z,45.70
2022-08-30T00:41:05.869Z,45.70
2022-08-30T00:43:36.569Z,46.40
2022-08-30T00:46:07.705Z,45.80
2022-08-30T00:48:40.894Z,45.70
2022-08-30T00:51:09.855Z,45.70
2022-08-30T00:53:39.460Z,45.70
2022-08-30T00:56:07.965Z,45.70
2022-08-30T00:58:37.227Z,45.70
2022-08-30T01:01:05.596Z,45.80
2022-08-30T01:03:33.936Z,45.80
2022-08-30T01:06:03.576Z,45.90
2022-08-30T01:08:31.446Z,45.80
2022-08-30T01:10:59.322Z,45.90
2022-08-30T01:13:27.271Z,45.80
2022-08-30T01:15:55.812Z,45.80
2022-08-30T01:18:24.336Z,45.90
2022-08-30T01:21:03.659Z,45.80
2022-08-30T01:23:32.726Z,45.80
2022-08-30T01:26:00.437Z,45.80
2022-08-30T01:28:28.984Z,45.80
2022-08-30T01:30:57.029Z,46.00
2022-08-30T01:33:24.844Z,45.90
2022-08-30T01:35:54.061Z,45.90
2022-08-30T01:38:22.636Z,46.00
2022-08-30T01:40:52.017Z,46.00
2022-08-30T01:43:20.095Z,45.90
2022-08-30T01:45:48.863Z,46.00
2022-08-30T01:48:16.613Z,45.90
2022-08-30T01:50:44.366Z,46.00
2022-08-30T01:53:13.150Z,46.00
2022-08-30T01:55:41.143Z,46.00
2022-08-30T01:58:10.255Z,46.00
2022-08-30T02:00:38.599Z,46.10
2022-08-30T02:03:06.438Z,46.00
2022-08-30T02:05:34.344Z,46.00
2022-08-30T02:08:03.047Z,46.10
2022-08-30T02:10:31.125Z,46.00
2022-08-30T02:12:59.448Z,46.10
2022-08-30T02:15:28.837Z,46.10
2022-08-30T02:17:56.749Z,46.00
2022-08-30T02:20:24.639Z,46.10
2022-08-30T02:22:52.556Z,46.10
2022-08-30T02:25:21.332Z,46.10
2022-08-30T02:27:49.405Z,46.10
2022-08-30T02:30:17.423Z,46.00
2022-08-30T02:32:46.652Z,46.20
2022-08-30T02:35:14.385Z,46.10
2022-08-30T02:37:42.164Z,46.20
2022-08-30T02:40:11.782Z,46.10
2022-08-30T02:42:41.650Z,46.10
2022-08-30T02:45:10.417Z,46.00
2022-08-30T02:47:38.318Z,46.10
2022-08-30T02:50:08.680Z,46.10
2022-08-30T02:52:36.388Z,46.10
2022-08-30T02:55:04.224Z,46.70
2022-08-30T02:57:31.959Z,46.10
2022-08-30T02:59:59.931Z,46.20
2022-08-30T03:02:27.788Z,46.70
2022-08-30T03:04:55.656Z,46.20
2022-08-30T03:07:24.999Z,46.10
2022-08-30T03:09:52.948Z,46.10
2022-08-30T03:12:20.936Z,46.10
2022-08-30T03:14:49.219Z,46.10
2022-08-30T03:17:17.842Z,46.00
2022-08-30T03:19:46.177Z,46.20
2022-08-30T03:22:14.208Z,46.10
2022-08-30T03:24:43.595Z,46.20
2022-08-30T03:27:11.505Z,46.20
2022-08-30T03:29:39.431Z,46.10
2022-08-30T03:32:07.512Z,46.20
2022-08-30T03:34:35.893Z,46.10
2022-08-30T03:37:03.884Z,46.10
2022-08-30T03:39:31.931Z,46.10
2022-08-30T03:42:00.970Z,46.00
2022-08-30T03:44:30.267Z,46.10
2022-08-30T03:46:57.998Z,46.10
2022-08-30T03:49:25.855Z,46.10
2022-08-30T03:51:53.722Z,46.10
2022-08-30T03:54:23.426Z,46.10
2022-08-30T03:56:52.530Z,46.10
2022-08-30T03:59:21.836Z,46.10
2022-08-30T04:01:49.785Z,46.00
2022-08-30T04:04:20.930Z,46.00
2022-08-30T04:06:49.437Z,46.00
2022-08-30T04:09:17.370Z,46.00
2022-08-30T04:11:45.641Z,46.10
2022-08-30T04:14:13.991Z,46.00
2022-08-30T04:16:43.428Z,46.10
2022-08-30T04:19:11.340Z,46.10
2022-08-30T04:21:43.042Z,46.10
2022-08-30T04:24:11.399Z,46.00
2022-08-30T04:26:39.361Z,46.10
2022-08-30T04:29:07.173Z,46.00
2022-08-30T04:31:35.004Z,46.00
2022-08-30T04:34:04.168Z,46.00
2022-08-30T04:36:32.132Z,46.10
2022-08-30T04:39:00.003Z,46.00
2022-08-30T04:41:27.971Z,46.10
2022-08-30T04:43:55.851Z,46.00
2022-08-30T04:46:23.917Z,45.90
2022-08-30T04:48:51.878Z,46.00
2022-08-30T04:51:21.160Z,46.00
2022-08-30T04:53:49.125Z,46.00
2022-08-30T04:56:20.117Z,45.90
2022-08-30T04:58:48.384Z,45.90
2022-08-30T05:01:18.835Z,45.90
2022-08-30T05:03:48.042Z,45.90
2022-08-30T05:06:16.202Z,46.00
2022-08-30T05:08:46.205Z,45.90
2022-08-30T05:11:15.419Z,45.90
2022-08-30T05:13:43.369Z,45.90
2022-08-30T05:16:13.330Z,45.80
2022-08-30T05:18:41.335Z,45.80
2022-08-30T05:21:10.410Z,45.90
2022-08-30T05:23:38.504Z,45.80
2022-08-30T05:26:08.529Z,45.70
2022-08-30T05:28:36.514Z,45.80
2022-08-30T05:31:04.813Z,45.80
2022-08-30T05:33:42.185Z,45.90
2022-08-30T05:36:10.727Z,45.80
2022-08-30T05:38:38.758Z,45.70
2022-08-30T05:41:10.959Z,45.70
2022-08-30T05:43:39.246Z,45.80
2022-08-30T05:46:08.146Z,45.80
2022-08-30T05:48:36.395Z,45.70
2022-08-30T05:51:05.624Z,45.60
2022-08-30T05:53:33.384Z,45.60
2022-08-30T05:56:02.175Z,45.70
2022-08-30T05:58:31.360Z,45.60
2022-08-30T06:00:59.202Z,45.60
2022-08-30T06:03:27.244Z,45.60
2022-08-30T06:05:55.015Z,45.60
2022-08-30T06:08:22.819Z,45.60
2022-08-30T06:10:50.603Z,45.70
2022-08-30T06:13:18.554Z,45.60
2022-08-30T06:15:47.858Z,45.60
2022-08-30T06:18:15.805Z,45.40
2022-08-30T06:20:43.876Z,45.60
2022-08-30T06:23:11.631Z,45.50
2022-08-30T06:25:41.395Z,45.60
2022-08-30T06:28:10.108Z,45.60
2022-08-30T06:30:37.906Z,45.50
2022-08-30T06:33:06.991Z,45.50
2022-08-30T06:35:42.204Z,45.60
2022-08-30T06:38:20.097Z,45.50
2022-08-30T06:40:48.522Z,45.50
2022-08-30T06:43:16.496Z,45.60
2022-08-30T06:45:44.408Z,45.50
2022-08-30T06:48:13.711Z,45.60
2022-08-30T06:50:42.138Z,45.50
2022-08-30T06:53:10.288Z,45.50
2022-08-30T06:55:39.168Z,45.60
2022-08-30T06:58:07.121Z,45.60
2022-08-30T07:00:35.231Z,45.50
2022-08-30T07:03:04.796Z,45.50
2022-08-30T07:05:34.391Z,45.50
2022-08-30T07:08:02.300Z,45.60
2022-08-30T07:10:30.329Z,45.50
2022-08-30T07:12:58.267Z,45.50
2022-08-30T07:15:27.366Z,45.40
2022-08-30T07:18:12.929Z,45.40
2022-08-30T07:20:42.383Z,45.30
2022-08-30T07:23:10.540Z,46.00
2022-08-30T07:25:38.450Z,45.30
2022-08-30T07:28:06.578Z,45.30
2022-08-30T07:30:34.774Z,45.20
2022-08-30T07:33:02.740Z,45.20
2022-08-30T07:35:31.644Z,45.10
2022-08-30T07:38:01.043Z,45.10
2022-08-30T07:40:28.976Z,45.00
2022-08-30T07:42:57.080Z,45.10
2022-08-30T07:45:25.035Z,45.10
2022-08-30T07:47:53.007Z,45.10
2022-08-30T07:50:22.457Z,45.00
2022-08-30T07:52:50.507Z,44.90
2022-08-30T07:55:19.885Z,44.80
2022-08-30T07:57:47.852Z,44.70
2022-08-30T08:00:16.565Z,44.60
2022-08-30T08:02:45.522Z,44.60
2022-08-30T08:05:17.663Z,44.40
2022-08-30T08:07:46.701Z,44.20
2022-08-30T08:10:14.767Z,44.30
2022-08-30T08:12:44.201Z,44.20
2022-08-30T08:15:13.204Z,44.20
2022-08-30T08:17:41.352Z,44.10
2022-08-30T08:20:09.818Z,43.90
2022-08-30T08:22:40.220Z,43.60
2022-08-30T08:25:09.086Z,43.60
2022-08-30T08:27:37.038Z,43.60
2022-08-30T08:30:07.532Z,43.60
2022-08-30T08:32:35.472Z,43.40
2022-08-30T08:35:03.473Z,43.30
2022-08-30T08:37:31.669Z,43.20
2022-08-30T08:39:59.818Z,43.00
2022-08-30T08:42:33.156Z,42.90
2022-08-30T08:45:03.636Z,43.20
2022-08-30T08:47:38.677Z,42.30
2022-08-30T08:50:09.412Z,42.10
2022-08-30T08:53:07.880Z,42.10
2022-08-30T08:55:36.057Z,41.90
2022-08-30T08:58:04.028Z,41.70
2022-08-30T09:00:32.141Z,41.80
2022-08-30T09:03:03.110Z,41.70
2022-08-30T09:05:36.768Z,41.50
2022-08-30T09:08:09.695Z,41.50
2022-08-30T09:10:49.902Z,41.40
2022-08-30T09:13:19.070Z,41.20
2022-08-30T09:15:53.731Z,41.20
2022-08-30T09:18:39.328Z,41.10
2022-08-30T09:21:09.961Z,41.20
2022-08-30T09:23:37.852Z,41.20
2022-08-30T09:26:07.227Z,41.30
2022-08-30T09:28:36.606Z,41.30
2022-08-30T09:31:12.247Z,41.30
2022-08-30T09:33:41.789Z,41.40
2022-08-30T09:36:17.518Z,41.40
2022-08-30T09:38:45.583Z,41.40
2022-08-30T09:41:30.884Z,41.40
2022-08-30T09:44:07.672Z,41.50
2022-08-30T09:46:35.601Z,41.30
2022-08-30T09:49:05.013Z,41.30
2022-08-30T09:51:44.936Z,41.20
2022-08-30T09:54:18.476Z,40.90
2022-08-30T09:56:52.811Z,40.90
2022-08-30T09:59:32.823Z,40.80
2022-08-30T10:02:02.464Z,40.60
2022-08-30T10:04:36.168Z,40.40
2022-08-30T10:07:06.622Z,40.30
2022-08-30T10:09:37.027Z,40.00
2022-08-30T10:12:07.228Z,40.20
2022-08-30T10:14:52.948Z,39.90
2022-08-30T10:17:28.298Z,40.20
2022-08-30T10:20:12.544Z,40.20
2022-08-30T10:22:42.138Z,40.50
2022-08-30T10:25:12.171Z,40.70
2022-08-30T10:27:48.590Z,40.90
2022-08-30T10:30:16.889Z,41.00
2022-08-30T10:32:47.799Z,41.10
2022-08-30T10:35:19.780Z,41.40
2022-08-30T10:37:49.662Z,41.80
2022-08-30T10:40:39.543Z,41.80
2022-08-30T10:43:09.857Z,42.10
2022-08-30T10:45:38.173Z,42.30
2022-08-30T10:48:08.173Z,42.40
2022-08-30T10:50:42.558Z,42.00
2022-08-30T10:53:11.507Z,42.20
2022-08-30T10:55:49.447Z,42.00
2022-08-30T10:58:18.219Z,42.00
2022-08-30T11:00:53.991Z,42.70
2022-08-30T11:03:56.937Z,42.20
2022-08-30T11:06:29.391Z,42.30
2022-08-30T11:09:19.313Z,42.30
2022-08-30T11:11:57.147Z,42.30
2022-08-30T11:14:25.550Z,42.20
2022-08-30T11:16:55.228Z,42.30
2022-08-30T11:19:26.083Z,42.50
2022-08-30T11:22:01.105Z,42.10
2022-08-30T11:24:29.053Z,41.90
2022-08-30T11:27:01.895Z,41.60
2022-08-30T11:29:35.935Z,41.60
2022-08-30T11:32:23.317Z,41.90
2022-08-30T11:35:00.220Z,42.00
2022-08-30T11:37:38.886Z,42.20
2022-08-30T11:40:14.243Z,42.40
2022-08-30T11:42:48.118Z,42.60
2022-08-30T11:45:59.886Z,42.70
2022-08-30T11:48:54.615Z,42.80
2022-08-30T11:51:50.870Z,42.60
2022-08-30T11:54:38.907Z,42.50
2022-08-30T11:57:11.817Z,42.00
2022-08-30T11:59:47.311Z,41.60
2022-08-30T12:02:48.658Z,41.40
2022-08-30T12:05:51.971Z,41.20
2022-08-30T12:08:45.399Z,41.00
2022-08-30T12:12:03.944Z,40.80
2022-08-30T12:14:40.885Z,40.80
2022-08-30T12:17:32.052Z,40.60
2022-08-30T12:20:00.187Z,40.70
2022-08-30T12:22:30.399Z,41.00
2022-08-30T12:24:58.694Z,41.20
2022-08-30T12:27:32.418Z,41.10
2022-08-30T12:30:03.148Z,40.90
2022-08-30T12:32:32.044Z,40.80
2022-08-30T12:35:00.483Z,40.50
2022-08-30T12:37:30.448Z,40.40
2022-08-30T12:40:02.948Z,40.40
2022-08-30T12:42:31.824Z,40.20
2022-08-30T12:45:06.798Z,40.20
2022-08-30T12:47:38.486Z,40.20
2022-08-30T12:50:07.697Z,40.70
2022-08-30T12:52:41.642Z,40.30
2022-08-30T12:55:17.442Z,40.20
2022-08-30T12:58:00.796Z,40.40
2022-08-30T13:00:31.632Z,40.90
2022-08-30T13:03:01.602Z,40.30
2022-08-30T13:05:38.270Z,40.20
2022-08-30T13:08:18.455Z,40.00
2022-08-30T13:10:55.443Z,39.90
2022-08-30T13:13:38.681Z,39.90
2022-08-30T13:16:24.786Z,39.60
2022-08-30T13:18:55.119Z,39.70
2022-08-30T13:21:25.972Z,40.10
2022-08-30T13:23:59.733Z,40.20
2022-08-30T13:26:28.958Z,40.40
2022-08-30T13:28:58.868Z,40.60
2022-08-30T13:31:28.782Z,40.80
2022-08-30T13:33:58.294Z,40.80
2022-08-30T13:36:27.385Z,40.50
2022-08-30T13:38:55.549Z,40.40
2022-08-30T13:41:23.586Z,40.60
2022-08-30T13:46:43.042Z,40.40
2022-08-30T13:52:19.693Z,40.40
2022-08-30T13:54:50.057Z,40.40
2022-08-30T13:57:53.494Z,40.70
2022-08-30T14:00:08.747Z,40.80
2022-08-30T14:02:43.062Z,40.70
2022-08-30T14:05:37.698Z,40.60
2022-08-30T14:08:04.659Z,40.40
2022-08-30T14:10:45.611Z,40.20
2022-08-30T14:13:14.850Z,40.10
2022-08-30T14:15:42.653Z,40.20
2022-08-30T14:18:14.705Z,40.20
2022-08-30T14:20:45.475Z,40.50
2022-08-30T14:23:13.688Z,40.30
2022-08-30T14:25:41.717Z,40.40
2022-08-30T14:28:09.866Z,40.20
2022-08-30T14:30:39.065Z,40.30
2022-08-30T14:33:07.419Z,40.20
2022-08-30T14:35:38.220Z,40.30
2022-08-30T14:38:07.368Z,40.10
2022-08-30T14:40:39.289Z,39.90
2022-08-30T14:43:07.660Z,40.00
2022-08-30T14:45:35.701Z,40.20
2022-08-30T14:48:11.396Z,40.30
2022-08-30T14:50:41.287Z,40.30
2022-08-30T14:53:09.265Z,40.20
2022-08-30T14:55:37.481Z,40.10
2022-08-30T14:58:06.898Z,40.20
2022-08-30T15:00:34.970Z,40.30
2022-08-30T15:03:03.719Z,40.40
2022-08-30T15:05:32.263Z,40.50
2022-08-30T15:08:02.291Z,40.40
2022-08-30T15:10:30.321Z,40.40
2022-08-30T15:12:58.285Z,40.50
2022-08-30T15:15:26.413Z,40.60
2022-08-30T15:17:54.351Z,40.60
2022-08-30T15:20:22.497Z,40.60
2022-08-30T15:22:50.650Z,40.70
2022-08-30T15:25:22.158Z,40.70
2022-08-30T15:27:50.435Z,40.70
2022-08-30T15:30:20.240Z,40.80
2022-08-30T15:32:48.447Z,40.80
2022-08-30T15:35:16.613Z,40.90
2022-08-30T15:37:44.579Z,40.80
2022-08-30T15:40:12.821Z,40.90
2022-08-30T15:42:42.978Z,40.90
2022-08-30T15:45:11.647Z,40.90
2022-08-30T15:47:40.347Z,40.90
2022-08-30T15:50:09.030Z,41.00
2022-08-30T15:52:37.133Z,41.00
2022-08-30T15:55:05.696Z,41.00
2022-08-30T15:57:33.962Z,41.10
2022-08-30T16:00:05.531Z,41.20
2022-08-30T16:02:34.652Z,41.20
2022-08-30T16:05:03.304Z,41.10
2022-08-30T16:07:31.337Z,41.20
2022-08-30T16:09:59.407Z,41.10
2022-08-30T16:12:27.423Z,41.00
2022-08-30T16:14:55.321Z,41.20
2022-08-30T16:17:25.088Z,41.20
2022-08-30T16:19:58.147Z,41.20
2022-08-30T16:22:26.916Z,41.20
2022-08-30T16:24:55.050Z,41.20
2022-08-30T16:27:25.217Z,41.20
2022-08-30T16:29:53.349Z,41.30
2022-08-30T16:32:22.045Z,41.30
2022-08-30T16:34:51.637Z,41.20
2022-08-30T16:37:19.865Z,41.20
2022-08-30T16:39:47.791Z,41.20
2022-08-30T16:42:21.331Z,41.10
2022-08-30T16:44:49.989Z,41.20
2022-08-30T16:47:18.191Z,41.40
2022-08-30T16:49:46.286Z,41.40
2022-08-30T16:52:15.852Z,41.40
2022-08-30T16:54:46.140Z,41.40
2022-08-30T16:57:20.033Z,41.30
2022-08-30T16:59:48.185Z,41.30
2022-08-30T17:02:20.408Z,41.30
2022-08-30T17:04:52.804Z,41.20
2022-08-30T17:07:22.898Z,41.30
2022-08-30T17:09:51.052Z,41.40
2022-08-30T17:12:19.258Z,41.60
2022-08-30T17:14:47.548Z,41.60
2022-08-30T17:17:15.763Z,41.50
2022-08-30T17:19:44.093Z,41.40
2022-08-30T17:22:12.272Z,41.40
2022-08-30T17:24:42.675Z,41.40
2022-08-30T17:27:11.689Z,41.40
2022-08-30T17:29:39.739Z,41.50
2022-08-30T17:32:07.856Z,41.60
2022-08-30T17:34:36.873Z,41.60
2022-08-30T17:37:04.865Z,41.60
2022-08-30T17:39:32.716Z,41.70
2022-08-30T17:42:02.085Z,41.70
2022-08-30T17:44:32.270Z,41.70
2022-08-30T17:47:00.557Z,41.70
2022-08-30T17:49:30.307Z,41.70
2022-08-30T17:51:58.741Z,41.70
2022-08-30T17:54:27.160Z,41.70
2022-08-30T17:56:55.198Z,41.60
2022-08-30T17:59:25.519Z,41.60
2022-08-30T18:01:54.721Z,41.60
2022-08-30T18:04:25.000Z,41.70
2022-08-30T18:06:53.116Z,41.60
2022-08-30T18:09:22.827Z,41.60
2022-08-30T18:11:51.215Z,41.60
2022-08-30T18:14:19.149Z,41.60
2022-08-30T18:16:53.068Z,41.90
2022-08-30T18:19:22.593Z,41.60
2022-08-30T18:21:50.677Z,41.70
2022-08-30T18:24:19.134Z,41.70
2022-08-30T18:26:47.275Z,42.30
2022-08-30T18:29:15.229Z,41.60
2022-08-30T18:31:58.577Z,41.60
2022-08-30T18:34:26.485Z,41.60
2022-08-30T18:36:54.548Z,41.70
2022-08-30T18:39:24.706Z,41.70
2022-08-30T18:41:54.833Z,41.80
2022-08-30T18:44:29.370Z,41.80
2022-08-30T18:47:00.361Z,41.80
2022-08-30T18:49:28.658Z,41.80
2022-08-30T18:51:56.604Z,41.80
2022-08-30T18:54:24.776Z,41.80
2022-08-30T18:56:52.819Z,41.70
2022-08-30T18:59:22.903Z,41.70
2022-08-30T19:02:05.578Z,41.80
2022-08-30T19:04:35.031Z,41.80
2022-08-30T19:07:05.052Z,41.80
2022-08-30T19:09:33.160Z,41.90
2022-08-30T19:12:01.448Z,41.80
2022-08-30T19:14:29.486Z,41.70
2022-08-30T19:16:57.768Z,41.70
2022-08-30T19:19:28.927Z,41.70
2022-08-30T19:21:56.965Z,41.80
2022-08-30T19:24:25.116Z,41.90
2022-08-30T19:26:53.191Z,41.80
2022-08-30T19:29:21.600Z,41.80
2022-08-30T19:31:52.791Z,41.80
2022-08-30T19:34:21.229Z,41.80
2022-08-30T19:36:52.228Z,42.00
2022-08-30T19:39:20.756Z,41.80
2022-08-30T19:41:50.199Z,41.90
2022-08-30T19:44:18.173Z,41.90
2022-08-30T19:46:46.140Z,41.80
2022-08-30T19:49:14.215Z,41.90
2022-08-30T19:51:46.893Z,42.00
2022-08-30T19:54:27.431Z,42.10
2022-08-30T19:56:55.611Z,42.70
2022-08-30T19:59:33.770Z,42.10
2022-08-30T20:02:04.167Z,42.10
2022-08-30T20:04:34.778Z,42.10
2022-08-30T20:07:03.009Z,42.10
2022-08-30T20:09:32.619Z,42.10
2022-08-30T20:12:00.519Z,42.10
2022-08-30T20:14:28.480Z,42.10
2022-08-30T20:16:56.512Z,42.10
2022-08-30T20:19:27.774Z,42.20
2022-08-30T20:24:46.840Z,41.90
2022-08-30T20:27:15.099Z,42.00
2022-08-30T20:29:43.470Z,41.90
2022-08-30T20:32:14.599Z,41.90
2022-08-30T20:34:43.415Z,41.90
2022-08-30T20:37:12.215Z,42.00
2022-08-30T20:39:40.185Z,42.00
2022-08-30T20:42:09.745Z,41.90
2022-08-30T20:44:38.401Z,41.90
2022-08-30T20:47:06.936Z,41.80
2022-08-30T20:49:35.587Z,41.80
2022-08-30T20:52:04.875Z,42.00
2022-08-30T20:54:33.130Z,41.90
2022-08-30T20:57:02.442Z,41.90
2022-08-30T20:59:32.071Z,41.80
2022-08-30T21:02:00.572Z,41.90
2022-08-30T21:04:31.732Z,41.90
2022-08-30T21:07:00.185Z,41.80
2022-08-30T21:09:30.779Z,41.80
2022-08-30T21:12:01.328Z,41.90
2022-08-30T21:14:29.228Z,41.80
2022-08-30T21:16:58.664Z,41.70
2022-08-30T21:19:26.820Z,41.70
2022-08-30T21:21:54.889Z,41.80
2022-08-30T21:24:22.816Z,41.80
2022-08-30T21:26:51.716Z,41.80
2022-08-30T21:29:19.936Z,41.80
2022-08-30T21:31:48.269Z,41.80
2022-08-30T21:34:18.088Z,41.80
2022-08-30T21:36:48.076Z,41.70
2022-08-30T21:39:18.351Z,41.70
2022-08-30T21:41:46.805Z,41.80
2022-08-30T21:44:19.267Z,41.80
2022-08-30T21:46:47.451Z,36.60
2022-08-30T21:49:18.553Z,36.80
2022-08-30T21:51:47.199Z,37.20
2022-08-30T21:54:15.681Z,37.80
2022-08-30T21:56:44.794Z,38.40
2022-08-30T21:59:13.198Z,38.40
2022-08-30T22:01:43.118Z,38.30
2022-08-30T22:04:11.294Z,38.30
2022-08-30T22:06:41.782Z,38.30
2022-08-30T22:09:13.688Z,38.60
2022-08-30T22:11:41.872Z,39.00
2022-08-30T22:14:10.384Z,38.50
2022-08-30T22:16:40.451Z,39.00
2022-08-30T22:19:08.481Z,38.70
2022-08-30T22:21:37.448Z,38.80
2022-08-30T22:24:07.923Z,38.90
2022-08-30T22:26:36.077Z,39.40
2022-08-30T22:29:04.649Z,39.20
2022-08-30T22:31:32.703Z,39.00
2022-08-30T22:34:00.703Z,39.00
2022-08-30T22:36:32.267Z,39.80
2022-08-30T22:39:01.103Z,41.30
2022-08-30T22:41:31.696Z,40.80
2022-08-30T22:43:59.831Z,40.00
2022-08-30T22:46:29.608Z,39.40
2022-08-30T22:49:02.941Z,38.90
2022-08-30T22:51:30.967Z,38.50
2022-08-30T22:53:59.005Z,38.30
2022-08-30T22:56:27.053Z,38.00
2022-08-30T22:58:56.565Z,37.90
2022-08-30T23:01:26.740Z,37.70
2022-08-30T23:03:54.849Z,37.60
2022-08-30T23:06:22.915Z,37.50
2022-08-30T23:08:50.911Z,37.50
2022-08-30T23:11:18.885Z,37.50
2022-08-30T23:13:47.133Z,37.40
2022-08-30T23:16:16.682Z,37.40
2022-08-30T23:18:45.464Z,38.00
2022-08-30T23:21:14.352Z,37.50
2022-08-30T23:24:00.706Z,37.50
2022-08-30T23:26:45.961Z,37.40
2022-08-30T23:29:31.307Z,37.40
2022-08-30T23:32:18.362Z,37.40
2022-08-30T23:35:03.671Z,37.40
2022-08-30T23:37:48.897Z,37.50
2022-08-30T23:40:38.750Z,37.50
2022-08-30T23:43:24.531Z,37.50
2022-08-30T23:46:10.095Z,37.50
2022-08-30T23:48:57.140Z,37.50
2022-08-30T23:51:42.632Z,37.50
2022-08-30T23:54:28.199Z,37.60
2022-08-30T23:57:13.750Z,37.60
2022-08-30T23:59:59.101Z,37.60
